sensor_id;sensor_type;location;lat;lon;timestamp;pressure;altitude;pressure_sealevel;temperature;humidity
70314;BME280;57725;47.526;18.986;2023-04-28T00:00:50;100338.91;;;12.40;85.72
70314;BME280;57725;47.526;18.986;2023-04-28T00:03:18;100333.75;;;12.39;85.81
70314;BME280;57725;47.526;18.986;2023-04-28T00:05:43;100334.66;;;12.38;85.94
70314;BME280;57725;47.526;18.986;2023-04-28T00:08:12;100337.28;;;12.38;85.71
70314;BME280;57725;47.526;18.986;2023-04-28T00:10:37;100332.03;;;12.38;85.72
70314;BME280;57725;47.526;18.986;2023-04-28T00:13:07;100339.03;;;12.37;85.69
70314;BME280;57725;47.526;18.986;2023-04-28T00:15:35;100339.03;;;12.37;85.71
70314;BME280;57725;47.526;18.986;2023-04-28T00:18:01;100331.19;;;12.37;85.96
70314;BME280;57725;47.526;18.986;2023-04-28T00:20:28;100334.72;;;12.36;85.61
70314;BME280;57725;47.526;18.986;2023-04-28T00:22:54;100329.47;;;12.36;85.56
70314;BME280;57725;47.526;18.986;2023-04-28T00:25:19;100335.63;;;12.35;85.62
70314;BME280;57725;47.526;18.986;2023-04-28T00:27:45;100329.69;;;12.31;85.57
70314;BME280;57725;47.526;18.986;2023-04-28T00:30:13;100325.25;;;12.33;85.56
70314;BME280;57725;47.526;18.986;2023-04-28T00:32:38;100332.31;;;12.31;85.69
70314;BME280;57725;47.526;18.986;2023-04-28T00:35:04;100330.53;;;12.32;85.38
70314;BME280;57725;47.526;18.986;2023-04-28T00:37:30;100336.69;;;12.31;85.58
70314;BME280;57725;47.526;18.986;2023-04-28T00:39:55;100331.56;;;12.28;85.59
70314;BME280;57725;47.526;18.986;2023-04-28T00:42:29;100330.66;;;12.29;85.44
70314;BME280;57725;47.526;18.986;2023-04-28T00:44:57;100334.94;;;12.31;85.49
70314;BME280;57725;47.526;18.986;2023-04-28T00:47:23;100336.69;;;12.31;85.87
70314;BME280;57725;47.526;18.986;2023-04-28T00:49:48;100335.06;;;12.28;85.27
70314;BME280;57725;47.526;18.986;2023-04-28T00:52:14;100331.56;;;12.28;85.77
70314;BME280;57725;47.526;18.986;2023-04-28T00:54:47;100334.25;;;12.26;85.53
70314;BME280;57725;47.526;18.986;2023-04-28T00:57:12;100343.81;;;12.27;85.82
70314;BME280;57725;47.526;18.986;2023-04-28T00:59:40;100352.59;;;12.26;85.40
70314;BME280;57725;47.526;18.986;2023-04-28T01:02:05;100354.31;;;12.27;85.47
70314;BME280;57725;47.526;18.986;2023-04-28T01:04:32;100349.19;;;12.24;85.28
70314;BME280;57725;47.526;18.986;2023-04-28T01:07:00;100337.00;;;12.23;85.33
70314;BME280;57725;47.526;18.986;2023-04-28T01:09:28;100348.34;;;12.24;85.35
70314;BME280;57725;47.526;18.986;2023-04-28T01:11:54;100349.19;;;12.24;85.74
70314;BME280;57725;47.526;18.986;2023-04-28T01:14:19;100351.91;;;12.23;85.47
70314;BME280;57725;47.526;18.986;2023-04-28T01:16:45;100358.06;;;12.22;85.25
70314;BME280;57725;47.526;18.986;2023-04-28T01:19:21;100352.81;;;12.22;85.25
70314;BME280;57725;47.526;18.986;2023-04-28T01:21:49;100352.72;;;12.23;85.06
70314;BME280;57725;47.526;18.986;2023-04-28T01:24:15;100361.53;;;12.22;85.39
70314;BME280;57725;47.526;18.986;2023-04-28T01:26:40;100358.97;;;12.21;85.50
70314;BME280;57725;47.526;18.986;2023-04-28T01:29:08;100355.50;;;12.20;85.04
70314;BME280;57725;47.526;18.986;2023-04-28T01:31:34;100358.13;;;12.20;85.32
70314;BME280;57725;47.526;18.986;2023-04-28T01:34:02;100350.31;;;12.19;84.93
70314;BME280;57725;47.526;18.986;2023-04-28T01:36:27;100348.63;;;12.18;85.13
70314;BME280;57725;47.526;18.986;2023-04-28T01:39:00;100350.31;;;12.19;85.13
70314;BME280;57725;47.526;18.986;2023-04-28T01:41:25;100349.59;;;12.15;85.55
70314;BME280;57725;47.526;18.986;2023-04-28T01:43:53;100347.88;;;12.14;85.43
70314;BME280;57725;47.526;18.986;2023-04-28T01:46:21;100340.94;;;12.13;85.68
70314;BME280;57725;47.526;18.986;2023-04-28T01:48:46;100345.25;;;12.14;85.32
70314;BME280;57725;47.526;18.986;2023-04-28T01:51:14;100344.47;;;12.12;85.50
70314;BME280;57725;47.526;18.986;2023-04-28T01:53:39;100338.47;;;12.10;85.66
70314;BME280;57725;47.526;18.986;2023-04-28T01:56:07;100341.94;;;12.11;85.36
70314;BME280;57725;47.526;18.986;2023-04-28T01:58:33;100342.06;;;12.08;85.59
70314;BME280;57725;47.526;18.986;2023-04-28T02:00:58;100343.75;;;12.09;85.35
70314;BME280;57725;47.526;18.986;2023-04-28T02:03:26;100347.34;;;12.06;85.43
70314;BME280;57725;47.526;18.986;2023-04-28T02:05:52;100348.25;;;12.05;85.62
70314;BME280;57725;47.526;18.986;2023-04-28T02:08:20;100349.13;;;12.06;85.53
70314;BME280;57725;47.526;18.986;2023-04-28T02:10:45;100338.69;;;12.04;85.49
70314;BME280;57725;47.526;18.986;2023-04-28T02:13:13;100342.22;;;12.03;85.86
70314;BME280;57725;47.526;18.986;2023-04-28T02:15:41;100352.66;;;12.05;85.26
70314;BME280;57725;47.526;18.986;2023-04-28T02:18:09;100348.38;;;12.02;85.41
70314;BME280;57725;47.526;18.986;2023-04-28T02:20:35;100352.78;;;12.02;85.49
70314;BME280;57725;47.526;18.986;2023-04-28T02:23:07;100354.63;;;12.00;85.55
70314;BME280;57725;47.526;18.986;2023-04-28T02:25:38;100355.53;;;11.99;85.29
70314;BME280;57725;47.526;18.986;2023-04-28T02:28:06;100356.50;;;11.96;85.79
70314;BME280;57725;47.526;18.986;2023-04-28T02:30:33;100355.59;;;11.97;85.84
70314;BME280;57725;47.526;18.986;2023-04-28T02:32:59;100362.66;;;11.95;85.53
70314;BME280;57725;47.526;18.986;2023-04-28T02:35:24;100356.56;;;11.94;85.64
70314;BME280;57725;47.526;18.986;2023-04-28T02:37:50;100351.38;;;11.93;85.60
70314;BME280;57725;47.526;18.986;2023-04-28T02:40:16;100354.06;;;11.91;85.74
70314;BME280;57725;47.526;18.986;2023-04-28T02:42:41;100357.53;;;11.92;85.77
70314;BME280;57725;47.526;18.986;2023-04-28T02:45:07;100359.34;;;11.90;85.83
70314;BME280;57725;47.526;18.986;2023-04-28T02:47:35;100354.13;;;11.90;85.94
70314;BME280;57725;47.526;18.986;2023-04-28T02:50:03;100351.50;;;11.90;85.74
70314;BME280;57725;47.526;18.986;2023-04-28T02:52:31;100356.81;;;11.88;85.69
70314;BME280;57725;47.526;18.986;2023-04-28T02:54:59;100356.88;;;11.87;85.68
70314;BME280;57725;47.526;18.986;2023-04-28T02:57:26;100355.13;;;11.87;85.76
70314;BME280;57725;47.526;18.986;2023-04-28T02:59:51;100355.19;;;11.86;86.04
70314;BME280;57725;47.526;18.986;2023-04-28T03:02:19;100357.81;;;11.86;85.42
70314;BME280;57725;47.526;18.986;2023-04-28T03:04:49;100353.47;;;11.85;85.95
70314;BME280;57725;47.526;18.986;2023-04-28T03:07:14;100356.94;;;11.85;85.36
70314;BME280;57725;47.526;18.986;2023-04-28T03:09:42;100361.34;;;11.85;85.73
70314;BME280;57725;47.526;18.986;2023-04-28T03:12:07;100364.00;;;11.83;85.66
70314;BME280;57725;47.526;18.986;2023-04-28T03:14:35;100366.63;;;11.83;85.48
70314;BME280;57725;47.526;18.986;2023-04-28T03:17:03;100371.00;;;11.83;85.56
70314;BME280;57725;47.526;18.986;2023-04-28T03:19:28;100371.97;;;11.80;85.95
70314;BME280;57725;47.526;18.986;2023-04-28T03:21:53;100370.22;;;11.81;85.94
70314;BME280;57725;47.526;18.986;2023-04-28T03:24:19;100377.22;;;11.80;85.65
70314;BME280;57725;47.526;18.986;2023-04-28T03:26:44;100365.94;;;11.78;85.67
70314;BME280;57725;47.526;18.986;2023-04-28T03:29:10;100366.03;;;11.77;85.80
70314;BME280;57725;47.526;18.986;2023-04-28T03:31:35;100365.22;;;11.75;85.60
70314;BME280;57725;47.526;18.986;2023-04-28T03:34:03;100360.84;;;11.75;85.60
70314;BME280;57725;47.526;18.986;2023-04-28T03:36:28;100370.50;;;11.73;85.94
70314;BME280;57725;47.526;18.986;2023-04-28T03:38:54;100368.72;;;11.74;85.73
70314;BME280;57725;47.526;18.986;2023-04-28T03:41:22;100367.03;;;11.73;85.72
70314;BME280;57725;47.526;18.986;2023-04-28T03:43:47;100371.34;;;11.74;85.69
70314;BME280;57725;47.526;18.986;2023-04-28T03:46:13;100367.94;;;11.72;85.89
70314;BME280;57725;47.526;18.986;2023-04-28T03:48:38;100364.56;;;11.68;85.74
70314;BME280;57725;47.526;18.986;2023-04-28T03:51:06;100368.84;;;11.71;85.38
70314;BME280;57725;47.526;18.986;2023-04-28T03:53:34;100366.22;;;11.71;85.72
70314;BME280;57725;47.526;18.986;2023-04-28T03:56:02;100368.00;;;11.70;85.66
70314;BME280;57725;47.526;18.986;2023-04-28T03:58:28;100372.44;;;11.68;85.79
70314;BME280;57725;47.526;18.986;2023-04-28T04:00:56;100371.56;;;11.68;85.65
70314;BME280;57725;47.526;18.986;2023-04-28T04:03:24;100380.44;;;11.65;85.82
70314;BME280;57725;47.526;18.986;2023-04-28T04:05:52;100380.44;;;11.65;85.88
70314;BME280;57725;47.526;18.986;2023-04-28T04:08:19;100384.81;;;11.65;85.79
70314;BME280;57725;47.526;18.986;2023-04-28T04:10:45;100380.50;;;11.64;86.09
70314;BME280;57725;47.526;18.986;2023-04-28T04:13:10;100375.25;;;11.64;85.77
70314;BME280;57725;47.526;18.986;2023-04-28T04:15:35;100386.59;;;11.64;86.00
70314;BME280;57725;47.526;18.986;2023-04-28T04:18:01;100387.50;;;11.63;85.87
70314;BME280;57725;47.526;18.986;2023-04-28T04:20:29;100384.88;;;11.63;85.93
70314;BME280;57725;47.526;18.986;2023-04-28T04:22:57;100387.53;;;11.61;85.84
70314;BME280;57725;47.526;18.986;2023-04-28T04:25:28;100388.47;;;11.60;86.01
70314;BME280;57725;47.526;18.986;2023-04-28T04:27:55;100390.22;;;11.60;85.99
70314;BME280;57725;47.526;18.986;2023-04-28T04:30:24;100390.28;;;11.58;85.95
70314;BME280;57725;47.526;18.986;2023-04-28T04:32:49;100386.81;;;11.58;85.91
70314;BME280;57725;47.526;18.986;2023-04-28T04:35:15;100389.41;;;11.58;85.87
70314;BME280;57725;47.526;18.986;2023-04-28T04:37:40;100386.00;;;11.56;86.29
70314;BME280;57725;47.526;18.986;2023-04-28T04:40:09;100386.00;;;11.56;86.40
70314;BME280;57725;47.526;18.986;2023-04-28T04:42:37;100387.75;;;11.55;86.21
70314;BME280;57725;47.526;18.986;2023-04-28T04:45:02;100393.00;;;11.55;86.05
70314;BME280;57725;47.526;18.986;2023-04-28T04:47:28;100387.00;;;11.53;85.97
70314;BME280;57725;47.526;18.986;2023-04-28T04:49:55;100397.38;;;11.55;85.89
70314;BME280;57725;47.526;18.986;2023-04-28T04:52:21;100397.38;;;11.55;86.03
70314;BME280;57725;47.526;18.986;2023-04-28T04:54:49;100400.09;;;11.53;85.96
70314;BME280;57725;47.526;18.986;2023-04-28T04:57:14;100398.38;;;11.52;86.44
70314;BME280;57725;47.526;18.986;2023-04-28T04:59:43;100392.34;;;11.50;86.41
70314;BME280;57725;47.526;18.986;2023-04-28T05:02:08;100388.88;;;11.50;86.25
70314;BME280;57725;47.526;18.986;2023-04-28T05:04:34;100386.38;;;11.47;86.58
70314;BME280;57725;47.526;18.986;2023-04-28T05:07:02;100395.94;;;11.48;86.48
70314;BME280;57725;47.526;18.986;2023-04-28T05:09:30;100395.88;;;11.49;86.12
70314;BME280;57725;47.526;18.986;2023-04-28T05:11:58;100398.44;;;11.51;86.50
70314;BME280;57725;47.526;18.986;2023-04-28T05:14:23;100398.44;;;11.51;86.17
70314;BME280;57725;47.526;18.986;2023-04-28T05:16:53;100394.16;;;11.48;86.53
70314;BME280;57725;47.526;18.986;2023-04-28T05:19:19;100398.53;;;11.48;86.41
70314;BME280;57725;47.526;18.986;2023-04-28T05:21:46;100402.06;;;11.47;86.75
70314;BME280;57725;47.526;18.986;2023-04-28T05:24:15;100402.06;;;11.47;86.25
70314;BME280;57725;47.526;18.986;2023-04-28T05:26:41;100400.41;;;11.44;86.47
70314;BME280;57725;47.526;18.986;2023-04-28T05:29:09;100403.03;;;11.44;86.86
70314;BME280;57725;47.526;18.986;2023-04-28T05:31:38;100400.47;;;11.43;86.71
70314;BME280;57725;47.526;18.986;2023-04-28T05:34:03;100399.63;;;11.42;87.18
70314;BME280;57725;47.526;18.986;2023-04-28T05:36:31;100399.63;;;11.42;87.12
70314;BME280;57725;47.526;18.986;2023-04-28T05:38:57;100395.31;;;11.41;86.86
70314;BME280;57725;47.526;18.986;2023-04-28T05:41:22;100398.78;;;11.42;87.46
70314;BME280;57725;47.526;18.986;2023-04-28T05:44:00;100397.13;;;11.39;87.12
70314;BME280;57725;47.526;18.986;2023-04-28T05:46:25;100398.00;;;11.40;87.17
70314;BME280;57725;47.526;18.986;2023-04-28T05:48:51;100402.31;;;11.41;87.18
70314;BME280;57725;47.526;18.986;2023-04-28T05:51:16;100405.84;;;11.40;87.45
70314;BME280;57725;47.526;18.986;2023-04-28T05:53:41;100406.75;;;11.39;87.30
70314;BME280;57725;47.526;18.986;2023-04-28T05:56:07;100408.50;;;11.38;87.45
70314;BME280;57725;47.526;18.986;2023-04-28T05:58:32;100408.47;;;11.40;87.39
70314;BME280;57725;47.526;18.986;2023-04-28T06:01:00;100404.19;;;11.37;87.62
70314;BME280;57725;47.526;18.986;2023-04-28T06:03:26;100402.44;;;11.38;87.77
70314;BME280;57725;47.526;18.986;2023-04-28T06:05:53;100406.81;;;11.37;88.02
70314;BME280;57725;47.526;18.986;2023-04-28T06:08:21;100411.19;;;11.37;87.69
70314;BME280;57725;47.526;18.986;2023-04-28T06:10:47;100415.56;;;11.36;88.06
70314;BME280;57725;47.526;18.986;2023-04-28T06:13:14;100406.84;;;11.36;87.90
70314;BME280;57725;47.526;18.986;2023-04-28T06:15:45;100407.72;;;11.36;87.79
70314;BME280;57725;47.526;18.986;2023-04-28T06:18:13;100416.41;;;11.37;88.17
70314;BME280;57725;47.526;18.986;2023-04-28T06:20:40;100411.25;;;11.35;88.25
70314;BME280;57725;47.526;18.986;2023-04-28T06:23:06;100408.69;;;11.34;88.66
70314;BME280;57725;47.526;18.986;2023-04-28T06:25:34;100419.03;;;11.37;88.29
70314;BME280;57725;47.526;18.986;2023-04-28T06:28:00;100410.34;;;11.36;88.48
70314;BME280;57725;47.526;18.986;2023-04-28T06:30:26;100410.34;;;11.36;88.46
70314;BME280;57725;47.526;18.986;2023-04-28T06:32:51;100412.09;;;11.36;88.71
70314;BME280;57725;47.526;18.986;2023-04-28T06:35:21;100418.25;;;11.35;88.66
70314;BME280;57725;47.526;18.986;2023-04-28T06:37:49;100417.38;;;11.34;89.06
70314;BME280;57725;47.526;18.986;2023-04-28T06:40:17;100413.91;;;11.34;88.98
70314;BME280;57725;47.526;18.986;2023-04-28T06:42:43;100413.91;;;11.34;88.88
70314;BME280;57725;47.526;18.986;2023-04-28T06:45:10;100415.69;;;11.33;88.77
70314;BME280;57725;47.526;18.986;2023-04-28T06:47:36;100422.63;;;11.34;89.05
70314;BME280;57725;47.526;18.986;2023-04-28T06:50:02;100415.69;;;11.33;89.27
70314;BME280;57725;47.526;18.986;2023-04-28T06:52:30;100422.63;;;11.34;89.23
70314;BME280;57725;47.526;18.986;2023-04-28T06:54:55;100417.38;;;11.34;89.12
70314;BME280;57725;47.526;18.986;2023-04-28T06:57:25;100425.25;;;11.34;89.20
70314;BME280;57725;47.526;18.986;2023-04-28T06:59:50;100412.19;;;11.33;89.71
70314;BME280;57725;47.526;18.986;2023-04-28T07:02:18;100406.97;;;11.33;89.19
70314;BME280;57725;47.526;18.986;2023-04-28T07:04:46;100411.28;;;11.34;89.57
70314;BME280;57725;47.526;18.986;2023-04-28T07:07:12;100406.97;;;11.33;89.69
70314;BME280;57725;47.526;18.986;2023-04-28T07:09:38;100408.69;;;11.34;89.67
70314;BME280;57725;47.526;18.986;2023-04-28T07:12:05;100405.19;;;11.33;89.81
70314;BME280;57725;47.526;18.986;2023-04-28T07:14:33;100401.69;;;11.34;89.68
70314;BME280;57725;47.526;18.986;2023-04-28T07:16:59;100408.69;;;11.34;89.59
70314;BME280;57725;47.526;18.986;2023-04-28T07:19:24;100409.53;;;11.34;90.00
70314;BME280;57725;47.526;18.986;2023-04-28T07:21:52;100406.06;;;11.34;90.25
70314;BME280;57725;47.526;18.986;2023-04-28T07:24:18;100405.16;;;11.35;90.55
70314;BME280;57725;47.526;18.986;2023-04-28T07:26:43;100401.69;;;11.34;90.73
70314;BME280;57725;47.526;18.986;2023-04-28T07:29:11;100404.25;;;11.36;90.76
70314;BME280;57725;47.526;18.986;2023-04-28T07:31:39;100402.53;;;11.35;90.69
70314;BME280;57725;47.526;18.986;2023-04-28T07:34:04;100404.25;;;11.36;90.83
70314;BME280;57725;47.526;18.986;2023-04-28T07:36:29;100395.53;;;11.35;91.16
70314;BME280;57725;47.526;18.986;2023-04-28T07:38:56;100403.38;;;11.35;90.54
70314;BME280;57725;47.526;18.986;2023-04-28T07:41:21;100403.34;;;11.37;91.15
70314;BME280;57725;47.526;18.986;2023-04-28T07:43:48;100392.88;;;11.37;91.37
70314;BME280;57725;47.526;18.986;2023-04-28T07:46:13;100393.72;;;11.37;91.37
70314;BME280;57725;47.526;18.986;2023-04-28T07:48:41;100392.00;;;11.36;91.36
70314;BME280;57725;47.526;18.986;2023-04-28T07:51:06;100395.47;;;11.37;91.28
70314;BME280;57725;47.526;18.986;2023-04-28T07:53:32;100385.88;;;11.37;91.51
70314;BME280;57725;47.526;18.986;2023-04-28T07:55:58;100383.25;;;11.37;91.55
70314;BME280;57725;47.526;18.986;2023-04-28T07:58:23;100374.53;;;11.37;91.48
70314;BME280;57725;47.526;18.986;2023-04-28T08:00:51;100370.16;;;11.37;91.75
70314;BME280;57725;47.526;18.986;2023-04-28T08:03:16;100366.63;;;11.38;91.45
70314;BME280;57725;47.526;18.986;2023-04-28T08:05:42;100364.91;;;11.37;91.68
70314;BME280;57725;47.526;18.986;2023-04-28T08:08:09;100358.78;;;11.38;91.64
70314;BME280;57725;47.526;18.986;2023-04-28T08:10:39;100351.84;;;11.37;91.46
70314;BME280;57725;47.526;18.986;2023-04-28T08:13:06;100358.78;;;11.38;91.92
70314;BME280;57725;47.526;18.986;2023-04-28T08:15:33;100352.63;;;11.39;91.80
70314;BME280;57725;47.526;18.986;2023-04-28T08:17:59;100343.97;;;11.37;91.79
70314;BME280;57725;47.526;18.986;2023-04-28T08:20:27;100347.41;;;11.39;91.76
70314;BME280;57725;47.526;18.986;2023-04-28T08:22:53;100344.78;;;11.39;92.02
70314;BME280;57725;47.526;18.986;2023-04-28T08:25:21;100337.78;;;11.40;92.10
70314;BME280;57725;47.526;18.986;2023-04-28T08:27:46;100339.50;;;11.41;91.72
70314;BME280;57725;47.526;18.986;2023-04-28T08:30:17;100338.63;;;11.40;92.23
70314;BME280;57725;47.526;18.986;2023-04-28T08:32:44;100336.78;;;11.42;92.08
70314;BME280;57725;47.526;18.986;2023-04-28T08:35:13;100325.50;;;11.42;92.00
70314;BME280;57725;47.526;18.986;2023-04-28T08:37:40;100326.25;;;11.44;91.96
70314;BME280;57725;47.526;18.986;2023-04-28T08:40:06;100322.72;;;11.45;92.35
70314;BME280;57725;47.526;18.986;2023-04-28T08:42:35;100320.97;;;11.45;91.88
70314;BME280;57725;47.526;18.986;2023-04-28T08:45:05;100318.34;;;11.45;92.29
70314;BME280;57725;47.526;18.986;2023-04-28T08:47:37;100320.97;;;11.45;92.12
70314;BME280;57725;47.526;18.986;2023-04-28T08:50:10;100327.00;;;11.47;92.47
70314;BME280;57725;47.526;18.986;2023-04-28T08:52:41;100309.59;;;11.46;91.64
70314;BME280;57725;47.526;18.986;2023-04-28T08:55:09;100311.22;;;11.49;92.37
70314;BME280;57725;47.526;18.986;2023-04-28T08:57:42;100328.66;;;11.50;92.14
70314;BME280;57725;47.526;18.986;2023-04-28T09:00:11;100323.41;;;11.50;92.33
70314;BME280;57725;47.526;18.986;2023-04-28T09:02:37;100319.88;;;11.51;92.45
70314;BME280;57725;47.526;18.986;2023-04-28T09:05:07;100329.50;;;11.50;92.22
70314;BME280;57725;47.526;18.986;2023-04-28T09:07:33;100318.06;;;11.53;92.41
70314;BME280;57725;47.526;18.986;2023-04-28T09:10:20;100324.97;;;11.54;92.22
70314;BME280;57725;47.526;18.986;2023-04-28T09:12:47;100317.06;;;11.55;92.08
70314;BME280;57725;47.526;18.986;2023-04-28T09:15:47;100315.31;;;11.56;91.91
70314;BME280;57725;47.526;18.986;2023-04-28T09:18:15;100319.63;;;11.57;91.98
70314;BME280;57725;47.526;18.986;2023-04-28T09:20:43;100324.88;;;11.57;91.64
70314;BME280;57725;47.526;18.986;2023-04-28T09:25:37;100319.50;;;11.60;91.96
70314;BME280;57725;47.526;18.986;2023-04-28T09:28:21;100319.47;;;11.61;91.80
70314;BME280;57725;47.526;18.986;2023-04-28T09:30:49;100315.06;;;11.62;91.66
70314;BME280;57725;47.526;18.986;2023-04-28T09:33:17;100320.19;;;11.65;91.92
70314;BME280;57725;47.526;18.986;2023-04-28T09:35:43;100315.78;;;11.66;92.00
70314;BME280;57725;47.526;18.986;2023-04-28T09:38:16;100313.16;;;11.66;91.87
70314;BME280;57725;47.526;18.986;2023-04-28T09:40:59;100318.28;;;11.69;91.83
70314;BME280;57725;47.526;18.986;2023-04-28T09:43:29;100305.13;;;11.70;92.00
70314;BME280;57725;47.526;18.986;2023-04-28T09:45:57;100312.06;;;11.71;91.86
70314;BME280;57725;47.526;18.986;2023-04-28T09:50:57;100292.75;;;11.75;92.12
70314;BME280;57725;47.526;18.986;2023-04-28T09:53:24;100292.69;;;11.77;91.84
70314;BME280;57725;47.526;18.986;2023-04-28T09:55:54;100305.78;;;11.77;92.07
70314;BME280;57725;47.526;18.986;2023-04-28T09:58:20;100286.44;;;11.79;91.56
70314;BME280;57725;47.526;18.986;2023-04-28T10:00:59;100288.16;;;11.80;91.83
70314;BME280;57725;47.526;18.986;2023-04-28T10:03:26;100281.09;;;11.82;91.86
70314;BME280;57725;47.526;18.986;2023-04-28T10:05:52;100275.78;;;11.84;91.70
70314;BME280;57725;47.526;18.986;2023-04-28T10:08:19;100280.97;;;11.85;91.92
70314;BME280;57725;47.526;18.986;2023-04-28T10:10:51;100275.72;;;11.85;91.43
70314;BME280;57725;47.526;18.986;2023-04-28T10:13:21;100274.75;;;11.88;91.54
70314;BME280;57725;47.526;18.986;2023-04-28T10:15:49;100263.34;;;11.89;91.62
70314;BME280;57725;47.526;18.986;2023-04-28T10:18:15;100267.59;;;11.91;91.50
70314;BME280;57725;47.526;18.986;2023-04-28T10:20:48;100264.13;;;11.91;91.21
70314;BME280;57725;47.526;18.986;2023-04-28T10:25:51;100254.38;;;11.94;91.15
70314;BME280;57725;47.526;18.986;2023-04-28T10:28:19;100242.19;;;11.93;91.28
70314;BME280;57725;47.526;18.986;2023-04-28T10:31:09;100240.31;;;11.97;91.08
70314;BME280;57725;47.526;18.986;2023-04-28T10:33:42;100230.69;;;11.98;91.03
70314;BME280;57725;47.526;18.986;2023-04-28T10:36:09;100240.16;;;12.00;90.82
70314;BME280;57725;47.526;18.986;2023-04-28T10:38:35;100228.75;;;12.01;90.74
70314;BME280;57725;47.526;18.986;2023-04-28T10:41:02;100222.59;;;12.02;90.89
70314;BME280;57725;47.526;18.986;2023-04-28T10:43:39;100222.53;;;12.04;90.90
70314;BME280;57725;47.526;18.986;2023-04-28T10:46:08;100218.09;;;12.06;90.89
70314;BME280;57725;47.526;18.986;2023-04-28T10:58:41;100211.59;;;12.14;90.72
70314;BME280;57725;47.526;18.986;2023-04-28T11:04:04;100202.75;;;12.17;90.61
70314;BME280;57725;47.526;18.986;2023-04-28T11:06:34;100198.28;;;12.19;90.50
70314;BME280;57725;47.526;18.986;2023-04-28T11:09:01;100200.78;;;12.22;90.56
70314;BME280;57725;47.526;18.986;2023-04-28T11:11:31;100199.03;;;12.22;90.70
70314;BME280;57725;47.526;18.986;2023-04-28T11:19:25;100184.78;;;12.28;90.55
70314;BME280;57725;47.526;18.986;2023-04-28T11:21:52;100190.81;;;12.30;90.41
70314;BME280;57725;47.526;18.986;2023-04-28T11:24:19;100192.50;;;12.31;90.38
70314;BME280;57725;47.526;18.986;2023-04-28T11:26:47;100193.28;;;12.33;90.56
70314;BME280;57725;47.526;18.986;2023-04-28T11:29:13;100178.41;;;12.33;90.39
70314;BME280;57725;47.526;18.986;2023-04-28T11:31:51;100178.31;;;12.35;90.50
70314;BME280;57725;47.526;18.986;2023-04-28T11:34:22;100183.50;;;12.37;90.41
70314;BME280;57725;47.526;18.986;2023-04-28T11:36:48;100189.53;;;12.39;90.38
70314;BME280;57725;47.526;18.986;2023-04-28T11:39:25;100194.72;;;12.40;90.61
70314;BME280;57725;47.526;18.986;2023-04-28T11:41:52;100179.03;;;12.39;90.48
70314;BME280;57725;47.526;18.986;2023-04-28T11:44:20;100195.50;;;12.42;90.45
70314;BME280;57725;47.526;18.986;2023-04-28T11:46:54;100183.09;;;12.46;90.47
70314;BME280;57725;47.526;18.986;2023-04-28T11:52:05;100182.94;;;12.49;90.65
70314;BME280;57725;47.526;18.986;2023-04-28T11:54:31;100173.31;;;12.49;90.49
70314;BME280;57725;47.526;18.986;2023-04-28T11:57:00;100166.28;;;12.50;90.36
70314;BME280;57725;47.526;18.986;2023-04-28T11:59:34;100168.84;;;12.51;90.58
70314;BME280;57725;47.526;18.986;2023-04-28T12:02:01;100174.88;;;12.53;90.48
70314;BME280;57725;47.526;18.986;2023-04-28T12:07:08;100162.56;;;12.55;90.52
70314;BME280;57725;47.526;18.986;2023-04-28T12:09:36;100154.63;;;12.57;90.49
70314;BME280;57725;47.526;18.986;2023-04-28T12:12:07;100160.63;;;12.59;90.58
70314;BME280;57725;47.526;18.986;2023-04-28T12:15:03;100157.16;;;12.58;90.43
70314;BME280;57725;47.526;18.986;2023-04-28T12:17:41;100155.25;;;12.62;90.47
70314;BME280;57725;47.526;18.986;2023-04-28T12:20:09;100149.06;;;12.63;90.48
70314;BME280;57725;47.526;18.986;2023-04-28T12:22:46;100148.16;;;12.64;90.49
70314;BME280;57725;47.526;18.986;2023-04-28T12:25:14;100145.47;;;12.65;90.37
70314;BME280;57725;47.526;18.986;2023-04-28T12:27:41;100149.78;;;12.66;90.51
70314;BME280;57725;47.526;18.986;2023-04-28T12:32:48;100135.69;;;12.69;90.53
70314;BME280;57725;47.526;18.986;2023-04-28T12:35:13;100136.44;;;12.71;90.56
70314;BME280;57725;47.526;18.986;2023-04-28T12:37:42;100128.50;;;12.73;90.62
70314;BME280;57725;47.526;18.986;2023-04-28T12:40:10;100119.72;;;12.74;90.67
70314;BME280;57725;47.526;18.986;2023-04-28T12:42:36;100116.09;;;12.76;90.76
70314;BME280;57725;47.526;18.986;2023-04-28T12:45:05;100101.22;;;12.77;90.65
70314;BME280;57725;47.526;18.986;2023-04-28T12:47:32;100098.50;;;12.78;90.52
70314;BME280;57725;47.526;18.986;2023-04-28T12:50:00;100085.41;;;12.78;90.57
70314;BME280;57725;47.526;18.986;2023-04-28T12:52:25;100080.94;;;12.80;90.69
70314;BME280;57725;47.526;18.986;2023-04-28T12:54:51;100079.06;;;12.82;90.46
70314;BME280;57725;47.526;18.986;2023-04-28T12:57:18;100063.31;;;12.82;90.58
70314;BME280;57725;47.526;18.986;2023-04-28T12:59:46;100067.56;;;12.85;90.54
70314;BME280;57725;47.526;18.986;2023-04-28T13:02:12;100062.31;;;12.85;90.63
70314;BME280;57725;47.526;18.986;2023-04-28T13:04:39;100051.75;;;12.86;90.55
70314;BME280;57725;47.526;18.986;2023-04-28T13:07:07;100043.81;;;12.88;90.66
70314;BME280;57725;47.526;18.986;2023-04-28T13:09:32;100046.44;;;12.88;90.57
70314;BME280;57725;47.526;18.986;2023-04-28T13:11:58;100041.13;;;12.89;90.56
70314;BME280;57725;47.526;18.986;2023-04-28T13:14:24;100041.03;;;12.91;90.46
70314;BME280;57725;47.526;18.986;2023-04-28T13:16:53;100040.13;;;12.92;90.41